الصفحة الرئيسية
METAR-TAF:

METAR-TAF

مطار :

Majuro, جزر مارشال

دائرة عرض: 07-04N, خط طول: 171-17E, ارتفاع: 2 متر

مراقبة الطقس الحالي

تاريخ ووقت الإصدار 31 دقيقة قبل الساعة 23:50UTC
ريح 9 عقدة من الشرق/الشمال الشرقي
درجة الحرارة 31°درجة مئوية
الرطوبة 75%
ضغط 1012 hPa
الرؤية: 24.1 كم
غيوم قليلة على ارتفاع 1500 قدم
غيوم متفرقة على ارتفاع 30000 قدم

METAR: PKMJ 172350Z 07009KT 15SM FEW015 SCT300 31/26 A2987 RMK LAST

زمن: 12:21 (00:21 UTC)

توقعات

تاريخ ووقت الإصدار 50 دقيقة قبل الساعة 23:31UTC
التوقعات صالحة من18 الساعة 00 UTC إلى 18 الساعة 24 UTC
ريح 8 عقدة من الشرق
الرؤية: 10 كم
غيوم متفرقة على ارتفاع 1500 قدم
غيوم متفرقة على ارتفاع 5000 قدم

TAF: PKMJ 172331Z 1800/1824 10008KT P6SM SCT015 SCT050

أرصاد الطقس والتوقعات من أكثر من 4000 مطار (تقارير الطقس للمطار METAR والتنبؤ بالطقس بالمطارTAF).

المحطات المتاحة هي النقط الصفراء والحمراء على الخريطة.

حرك المؤشر فوق النقطة لمعرفة اسم المحطة.

ثم انقر لمعرفة أرصاد وتوقعات الطقس.

لتغيير الخارطة: اضغط على الأزرار الخضراء مع رمز الصليب الأسود للتكبير. على الزر الأخضر مع شرطة للتصغير، أو على الأسهم الخضراء للخرائط المجاورة.


METAR-TAF: